Townline, New York
Current Conditions -  °F | °C
As of 10:54 AM on Friday 31 Oct 2014 (Local Time) from KBUF Reporting Station
Overcast Overcast  
Wind Chill:   Ceiling: 6000
Heat Index:   Visibility: 10mi
Dew Point:   Wind: 5mph
Humidity: 76%   Direction: 110°ESE
Pressure: 29.93"   Gusts: NA
Location:  42.8931°N, 78.5076°W
Report Text: KBUF 311454Z 11004KT 10SM FEW027 BKN060 OVC085 08/04 A2993 RMK AO2 SLP142 VIRGA DSNT ALQDS 60000 T00780039 58005
Loading
Personal Weather Stations






























Interactive Weather Map
Tropical Storm Tracking
New forecast layout! Learn more

10-Day Weather Forecast

Advertisements
Track Severe Weather on mobile